sensor_id;sensor_type;location;lat;lon;timestamp;P1;durP1;ratioP1;P2;durP2;ratioP2
80217;SDS011;69533;37.974;23.708;2023-04-24T00:01:42;15.48;;;11.23;;
80217;SDS011;69533;37.974;23.708;2023-04-24T00:04:08;21.50;;;12.73;;
80217;SDS011;69533;37.974;23.708;2023-04-24T00:06:36;17.02;;;13.25;;
80217;SDS011;69533;37.974;23.708;2023-04-24T00:09:03;16.05;;;11.98;;
80217;SDS011;69533;37.974;23.708;2023-04-24T00:11:29;19.45;;;12.15;;
80217;SDS011;69533;37.974;23.708;2023-04-24T00:13:55;16.63;;;12.43;;
80217;SDS011;69533;37.974;23.708;2023-04-24T00:16:22;16.17;;;12.55;;
80217;SDS011;69533;37.974;23.708;2023-04-24T00:18:48;21.98;;;12.02;;
80217;SDS011;69533;37.974;23.708;2023-04-24T00:21:14;18.13;;;12.00;;
80217;SDS011;69533;37.974;23.708;2023-04-24T00:23:42;20.98;;;12.55;;
80217;SDS011;69533;37.974;23.708;2023-04-24T00:26:09;20.45;;;12.32;;
80217;SDS011;69533;37.974;23.708;2023-04-24T00:28:34;16.13;;;11.50;;
80217;SDS011;69533;37.974;23.708;2023-04-24T00:31:00;19.23;;;12.95;;
80217;SDS011;69533;37.974;23.708;2023-04-24T00:33:26;15.90;;;11.85;;
80217;SDS011;69533;37.974;23.708;2023-04-24T00:35:52;17.63;;;12.70;;
80217;SDS011;69533;37.974;23.708;2023-04-24T00:38:18;18.95;;;12.15;;
80217;SDS011;69533;37.974;23.708;2023-04-24T00:40:44;16.85;;;11.18;;
80217;SDS011;69533;37.974;23.708;2023-04-24T00:43:10;21.60;;;12.02;;
80217;SDS011;69533;37.974;23.708;2023-04-24T00:45:36;18.27;;;13.00;;
80217;SDS011;69533;37.974;23.708;2023-04-24T00:48:02;19.50;;;11.80;;
80217;SDS011;69533;37.974;23.708;2023-04-24T00:50:29;14.82;;;11.27;;
80217;SDS011;69533;37.974;23.708;2023-04-24T00:52:55;21.38;;;12.23;;
80217;SDS011;69533;37.974;23.708;2023-04-24T00:55:21;18.25;;;11.43;;
80217;SDS011;69533;37.974;23.708;2023-04-24T00:57:47;15.60;;;10.77;;
80217;SDS011;69533;37.974;23.708;2023-04-24T01:00:14;17.92;;;11.98;;
80217;SDS011;69533;37.974;23.708;2023-04-24T01:02:41;17.98;;;12.07;;
80217;SDS011;69533;37.974;23.708;2023-04-24T01:05:10;16.02;;;11.45;;
80217;SDS011;69533;37.974;23.708;2023-04-24T01:07:38;15.90;;;11.27;;
80217;SDS011;69533;37.974;23.708;2023-04-24T01:10:06;18.00;;;12.48;;
80217;SDS011;69533;37.974;23.708;2023-04-24T01:12:33;17.77;;;12.73;;
80217;SDS011;69533;37.974;23.708;2023-04-24T01:14:59;22.42;;;11.90;;
80217;SDS011;69533;37.974;23.708;2023-04-24T01:17:25;19.48;;;12.60;;
80217;SDS011;69533;37.974;23.708;2023-04-24T01:19:51;19.88;;;12.20;;
80217;SDS011;69533;37.974;23.708;2023-04-24T01:22:21;15.57;;;12.25;;
80217;SDS011;69533;37.974;23.708;2023-04-24T01:24:47;17.35;;;11.98;;
80217;SDS011;69533;37.974;23.708;2023-04-24T01:27:13;17.77;;;12.35;;
80217;SDS011;69533;37.974;23.708;2023-04-24T01:29:39;17.88;;;11.55;;
80217;SDS011;69533;37.974;23.708;2023-04-24T01:32:05;15.20;;;10.70;;
80217;SDS011;69533;37.974;23.708;2023-04-24T01:34:31;17.52;;;11.73;;
80217;SDS011;69533;37.974;23.708;2023-04-24T01:36:57;15.75;;;11.07;;
80217;SDS011;69533;37.974;23.708;2023-04-24T01:39:23;18.50;;;11.57;;
80217;SDS011;69533;37.974;23.708;2023-04-24T01:41:50;14.63;;;10.95;;
80217;SDS011;69533;37.974;23.708;2023-04-24T01:44:17;19.20;;;12.38;;
80217;SDS011;69533;37.974;23.708;2023-04-24T01:46:43;16.67;;;11.63;;
80217;SDS011;69533;37.974;23.708;2023-04-24T01:49:10;15.88;;;12.55;;
80217;SDS011;69533;37.974;23.708;2023-04-24T01:51:35;17.55;;;11.75;;
80217;SDS011;69533;37.974;23.708;2023-04-24T01:54:01;18.80;;;13.02;;
80217;SDS011;69533;37.974;23.708;2023-04-24T01:56:31;16.58;;;11.82;;
80217;SDS011;69533;37.974;23.708;2023-04-24T01:58:58;19.35;;;11.88;;
80217;SDS011;69533;37.974;23.708;2023-04-24T02:01:26;18.08;;;11.50;;
80217;SDS011;69533;37.974;23.708;2023-04-24T02:03:52;17.65;;;11.70;;
80217;SDS011;69533;37.974;23.708;2023-04-24T02:06:18;18.60;;;12.65;;
80217;SDS011;69533;37.974;23.708;2023-04-24T02:08:43;19.50;;;13.35;;
80217;SDS011;69533;37.974;23.708;2023-04-24T02:11:09;17.08;;;11.38;;
80217;SDS011;69533;37.974;23.708;2023-04-24T02:13:35;16.95;;;12.25;;
80217;SDS011;69533;37.974;23.708;2023-04-24T02:16:01;19.27;;;11.57;;
80217;SDS011;69533;37.974;23.708;2023-04-24T02:18:27;18.75;;;13.00;;
80217;SDS011;69533;37.974;23.708;2023-04-24T02:20:53;16.90;;;11.80;;
80217;SDS011;69533;37.974;23.708;2023-04-24T02:23:18;17.05;;;12.65;;
80217;SDS011;69533;37.974;23.708;2023-04-24T02:25:44;18.95;;;12.27;;
80217;SDS011;69533;37.974;23.708;2023-04-24T02:28:10;16.98;;;11.60;;
80217;SDS011;69533;37.974;23.708;2023-04-24T02:30:36;20.90;;;13.18;;
80217;SDS011;69533;37.974;23.708;2023-04-24T02:33:02;16.98;;;11.75;;
80217;SDS011;69533;37.974;23.708;2023-04-24T02:35:28;20.15;;;13.35;;
80217;SDS011;69533;37.974;23.708;2023-04-24T02:37:54;20.98;;;12.48;;
80217;SDS011;69533;37.974;23.708;2023-04-24T02:40:20;22.00;;;12.43;;
80217;SDS011;69533;37.974;23.708;2023-04-24T02:42:46;17.63;;;12.55;;
80217;SDS011;69533;37.974;23.708;2023-04-24T02:45:11;17.50;;;11.43;;
80217;SDS011;69533;37.974;23.708;2023-04-24T02:47:37;17.02;;;11.85;;
80217;SDS011;69533;37.974;23.708;2023-04-24T02:50:03;16.20;;;11.00;;
80217;SDS011;69533;37.974;23.708;2023-04-24T02:52:29;17.90;;;12.15;;
80217;SDS011;69533;37.974;23.708;2023-04-24T02:54:55;18.73;;;12.27;;
80217;SDS011;69533;37.974;23.708;2023-04-24T02:57:21;16.92;;;11.77;;
80217;SDS011;69533;37.974;23.708;2023-04-24T02:59:46;16.70;;;11.80;;
80217;SDS011;69533;37.974;23.708;2023-04-24T03:02:12;20.00;;;12.32;;
80217;SDS011;69533;37.974;23.708;2023-04-24T03:04:38;15.93;;;11.27;;
80217;SDS011;69533;37.974;23.708;2023-04-24T03:07:05;18.77;;;12.18;;
80217;SDS011;69533;37.974;23.708;2023-04-24T03:09:31;20.05;;;13.45;;
80217;SDS011;69533;37.974;23.708;2023-04-24T03:11:56;18.42;;;11.85;;
80217;SDS011;69533;37.974;23.708;2023-04-24T03:14:23;18.10;;;12.82;;
80217;SDS011;69533;37.974;23.708;2023-04-24T03:16:49;21.05;;;11.82;;
80217;SDS011;69533;37.974;23.708;2023-04-24T03:19:15;17.52;;;12.15;;
80217;SDS011;69533;37.974;23.708;2023-04-24T03:21:41;18.50;;;11.63;;
80217;SDS011;69533;37.974;23.708;2023-04-24T03:24:07;17.83;;;11.60;;
80217;SDS011;69533;37.974;23.708;2023-04-24T03:26:33;16.77;;;12.25;;
80217;SDS011;69533;37.974;23.708;2023-04-24T03:29:00;16.95;;;11.88;;
80217;SDS011;69533;37.974;23.708;2023-04-24T03:31:26;20.90;;;13.05;;
80217;SDS011;69533;37.974;23.708;2023-04-24T03:33:51;18.48;;;11.13;;
80217;SDS011;69533;37.974;23.708;2023-04-24T03:36:17;20.35;;;10.85;;
80217;SDS011;69533;37.974;23.708;2023-04-24T03:38:44;25.73;;;11.40;;
80217;SDS011;69533;37.974;23.708;2023-04-24T03:41:10;21.25;;;10.60;;
80217;SDS011;69533;37.974;23.708;2023-04-24T03:43:36;19.27;;;10.43;;
80217;SDS011;69533;37.974;23.708;2023-04-24T03:46:02;18.80;;;11.70;;
80217;SDS011;69533;37.974;23.708;2023-04-24T03:48:28;19.52;;;11.23;;
80217;SDS011;69533;37.974;23.708;2023-04-24T03:50:54;20.42;;;11.25;;
80217;SDS011;69533;37.974;23.708;2023-04-24T03:53:20;20.33;;;11.57;;
80217;SDS011;69533;37.974;23.708;2023-04-24T03:55:46;20.77;;;11.27;;
80217;SDS011;69533;37.974;23.708;2023-04-24T03:58:12;21.70;;;11.32;;
80217;SDS011;69533;37.974;23.708;2023-04-24T04:00:39;15.75;;;11.27;;
80217;SDS011;69533;37.974;23.708;2023-04-24T04:03:05;20.27;;;11.30;;
80217;SDS011;69533;37.974;23.708;2023-04-24T04:05:31;15.02;;;10.02;;
80217;SDS011;69533;37.974;23.708;2023-04-24T04:07:57;20.30;;;11.38;;
80217;SDS011;69533;37.974;23.708;2023-04-24T04:10:22;17.55;;;10.07;;
80217;SDS011;69533;37.974;23.708;2023-04-24T04:12:48;17.27;;;11.15;;
80217;SDS011;69533;37.974;23.708;2023-04-24T04:15:14;19.58;;;10.88;;
80217;SDS011;69533;37.974;23.708;2023-04-24T04:17:40;17.38;;;11.10;;
80217;SDS011;69533;37.974;23.708;2023-04-24T04:20:06;18.35;;;11.25;;
80217;SDS011;69533;37.974;23.708;2023-04-24T04:22:35;15.63;;;10.30;;
80217;SDS011;69533;37.974;23.708;2023-04-24T04:25:02;16.13;;;12.02;;
80217;SDS011;69533;37.974;23.708;2023-04-24T04:27:28;22.15;;;11.70;;
80217;SDS011;69533;37.974;23.708;2023-04-24T04:29:57;22.27;;;12.20;;
80217;SDS011;69533;37.974;23.708;2023-04-24T04:32:29;17.65;;;11.60;;
80217;SDS011;69533;37.974;23.708;2023-04-24T04:34:58;22.73;;;11.35;;
80217;SDS011;69533;37.974;23.708;2023-04-24T04:37:27;25.85;;;11.43;;
80217;SDS011;69533;37.974;23.708;2023-04-24T04:39:53;16.80;;;10.90;;
80217;SDS011;69533;37.974;23.708;2023-04-24T04:42:19;17.05;;;11.52;;
80217;SDS011;69533;37.974;23.708;2023-04-24T04:44:45;22.40;;;11.45;;
80217;SDS011;69533;37.974;23.708;2023-04-24T04:47:11;23.23;;;11.82;;
80217;SDS011;69533;37.974;23.708;2023-04-24T04:49:40;19.75;;;10.95;;
80217;SDS011;69533;37.974;23.708;2023-04-24T04:52:06;22.35;;;12.00;;
80217;SDS011;69533;37.974;23.708;2023-04-24T04:54:31;19.23;;;11.20;;
80217;SDS011;69533;37.974;23.708;2023-04-24T04:56:57;18.30;;;10.80;;
80217;SDS011;69533;37.974;23.708;2023-04-24T04:59:23;16.83;;;11.60;;
80217;SDS011;69533;37.974;23.708;2023-04-24T05:01:49;18.90;;;11.63;;
80217;SDS011;69533;37.974;23.708;2023-04-24T05:04:15;17.83;;;11.93;;
80217;SDS011;69533;37.974;23.708;2023-04-24T05:06:41;18.77;;;11.65;;
80217;SDS011;69533;37.974;23.708;2023-04-24T05:09:06;20.60;;;10.93;;
80217;SDS011;69533;37.974;23.708;2023-04-24T05:11:32;18.25;;;11.88;;
80217;SDS011;69533;37.974;23.708;2023-04-24T05:13:58;21.25;;;11.88;;
80217;SDS011;69533;37.974;23.708;2023-04-24T05:16:24;24.77;;;12.48;;
80217;SDS011;69533;37.974;23.708;2023-04-24T05:18:50;18.88;;;11.35;;
80217;SDS011;69533;37.974;23.708;2023-04-24T05:21:15;19.52;;;11.10;;
80217;SDS011;69533;37.974;23.708;2023-04-24T05:23:41;19.88;;;12.02;;
80217;SDS011;69533;37.974;23.708;2023-04-24T05:26:07;15.93;;;10.57;;
80217;SDS011;69533;37.974;23.708;2023-04-24T05:28:33;14.55;;;9.90;;
80217;SDS011;69533;37.974;23.708;2023-04-24T05:31:01;17.90;;;9.63;;
80217;SDS011;69533;37.974;23.708;2023-04-24T05:33:27;18.23;;;9.38;;
80217;SDS011;69533;37.974;23.708;2023-04-24T05:35:53;16.98;;;9.70;;
80217;SDS011;69533;37.974;23.708;2023-04-24T05:38:19;15.27;;;8.90;;
80217;SDS011;69533;37.974;23.708;2023-04-24T05:40:45;13.68;;;8.65;;
80217;SDS011;69533;37.974;23.708;2023-04-24T05:43:12;17.70;;;9.75;;
80217;SDS011;69533;37.974;23.708;2023-04-24T05:45:38;10.82;;;7.78;;
80217;SDS011;69533;37.974;23.708;2023-04-24T05:48:04;16.60;;;10.40;;
80217;SDS011;69533;37.974;23.708;2023-04-24T05:50:30;15.77;;;8.45;;
80217;SDS011;69533;37.974;23.708;2023-04-24T05:52:56;15.25;;;8.35;;
80217;SDS011;69533;37.974;23.708;2023-04-24T05:55:26;14.18;;;7.75;;
80217;SDS011;69533;37.974;23.708;2023-04-24T05:57:52;14.20;;;7.75;;
80217;SDS011;69533;37.974;23.708;2023-04-24T06:00:18;11.93;;;7.50;;
80217;SDS011;69533;37.974;23.708;2023-04-24T06:02:45;13.10;;;7.70;;
80217;SDS011;69533;37.974;23.708;2023-04-24T06:05:11;8.98;;;6.50;;
80217;SDS011;69533;37.974;23.708;2023-04-24T06:07:36;12.30;;;7.78;;
80217;SDS011;69533;37.974;23.708;2023-04-24T06:10:02;9.15;;;6.45;;
80217;SDS011;69533;37.974;23.708;2023-04-24T06:12:28;11.05;;;6.68;;
80217;SDS011;69533;37.974;23.708;2023-04-24T06:14:54;9.55;;;7.03;;
80217;SDS011;69533;37.974;23.708;2023-04-24T06:17:23;8.55;;;6.07;;
80217;SDS011;69533;37.974;23.708;2023-04-24T06:19:49;10.55;;;6.38;;
80217;SDS011;69533;37.974;23.708;2023-04-24T06:22:14;11.25;;;7.40;;
80217;SDS011;69533;37.974;23.708;2023-04-24T06:24:40;8.02;;;5.88;;
80217;SDS011;69533;37.974;23.708;2023-04-24T06:27:06;7.50;;;5.88;;
80217;SDS011;69533;37.974;23.708;2023-04-24T06:29:32;9.95;;;6.25;;
80217;SDS011;69533;37.974;23.708;2023-04-24T06:31:59;11.35;;;6.60;;
80217;SDS011;69533;37.974;23.708;2023-04-24T06:34:25;9.13;;;5.45;;
80217;SDS011;69533;37.974;23.708;2023-04-24T06:36:51;6.78;;;5.07;;
80217;SDS011;69533;37.974;23.708;2023-04-24T06:39:17;7.03;;;4.68;;
80217;SDS011;69533;37.974;23.708;2023-04-24T06:41:42;10.32;;;4.93;;
80217;SDS011;69533;37.974;23.708;2023-04-24T06:44:08;8.68;;;6.47;;
80217;SDS011;69533;37.974;23.708;2023-04-24T06:46:34;5.95;;;4.57;;
80217;SDS011;69533;37.974;23.708;2023-04-24T06:49:00;6.93;;;4.82;;
80217;SDS011;69533;37.974;23.708;2023-04-24T06:51:27;7.60;;;4.65;;
80217;SDS011;69533;37.974;23.708;2023-04-24T06:53:53;7.38;;;4.47;;
80217;SDS011;69533;37.974;23.708;2023-04-24T06:56:20;13.30;;;5.70;;
80217;SDS011;69533;37.974;23.708;2023-04-24T06:58:47;8.00;;;5.68;;
80217;SDS011;69533;37.974;23.708;2023-04-24T07:01:13;8.05;;;4.15;;
80217;SDS011;69533;37.974;23.708;2023-04-24T07:03:38;12.65;;;5.75;;
80217;SDS011;69533;37.974;23.708;2023-04-24T07:06:05;8.23;;;4.05;;
80217;SDS011;69533;37.974;23.708;2023-04-24T07:08:31;6.05;;;4.18;;
80217;SDS011;69533;37.974;23.708;2023-04-24T07:10:58;8.00;;;4.47;;
80217;SDS011;69533;37.974;23.708;2023-04-24T07:13:24;6.13;;;4.70;;
80217;SDS011;69533;37.974;23.708;2023-04-24T07:15:49;4.95;;;3.85;;
80217;SDS011;69533;37.974;23.708;2023-04-24T07:18:17;7.35;;;4.35;;
80217;SDS011;69533;37.974;23.708;2023-04-24T07:20:43;5.60;;;5.05;;
80217;SDS011;69533;37.974;23.708;2023-04-24T07:23:10;5.18;;;4.38;;
80217;SDS011;69533;37.974;23.708;2023-04-24T07:25:36;6.00;;;4.47;;
80217;SDS011;69533;37.974;23.708;2023-04-24T07:28:02;4.60;;;3.70;;
80217;SDS011;69533;37.974;23.708;2023-04-24T07:30:28;5.05;;;3.55;;
80217;SDS011;69533;37.974;23.708;2023-04-24T07:32:57;5.15;;;3.72;;
80217;SDS011;69533;37.974;23.708;2023-04-24T07:35:26;7.82;;;4.35;;
80217;SDS011;69533;37.974;23.708;2023-04-24T07:37:56;6.80;;;4.05;;
80217;SDS011;69533;37.974;23.708;2023-04-24T07:40:22;3.92;;;3.22;;
80217;SDS011;69533;37.974;23.708;2023-04-24T07:42:48;3.97;;;3.25;;
80217;SDS011;69533;37.974;23.708;2023-04-24T07:45:15;3.63;;;3.03;;
80217;SDS011;69533;37.974;23.708;2023-04-24T07:47:45;3.15;;;2.83;;
80217;SDS011;69533;37.974;23.708;2023-04-24T07:50:11;3.65;;;2.85;;
80217;SDS011;69533;37.974;23.708;2023-04-24T07:52:37;3.17;;;2.72;;
80217;SDS011;69533;37.974;23.708;2023-04-24T07:55:04;4.88;;;2.63;;
80217;SDS011;69533;37.974;23.708;2023-04-24T07:57:30;3.53;;;2.83;;
80217;SDS011;69533;37.974;23.708;2023-04-24T08:00:02;5.63;;;3.25;;
80217;SDS011;69533;37.974;23.708;2023-04-24T08:02:29;4.55;;;2.97;;
80217;SDS011;69533;37.974;23.708;2023-04-24T08:04:55;5.35;;;3.10;;
80217;SDS011;69533;37.974;23.708;2023-04-24T08:07:20;4.07;;;2.83;;
80217;SDS011;69533;37.974;23.708;2023-04-24T08:09:46;4.32;;;3.10;;
80217;SDS011;69533;37.974;23.708;2023-04-24T08:12:12;5.82;;;2.90;;
80217;SDS011;69533;37.974;23.708;2023-04-24T08:14:40;3.60;;;2.80;;
80217;SDS011;69533;37.974;23.708;2023-04-24T08:17:08;4.43;;;2.83;;
80217;SDS011;69533;37.974;23.708;2023-04-24T08:19:34;3.05;;;2.75;;
80217;SDS011;69533;37.974;23.708;2023-04-24T08:22:03;3.17;;;2.78;;
80217;SDS011;69533;37.974;23.708;2023-04-24T08:24:29;5.88;;;2.95;;
80217;SDS011;69533;37.974;23.708;2023-04-24T08:26:54;5.90;;;4.03;;
80217;SDS011;69533;37.974;23.708;2023-04-24T08:29:22;5.95;;;3.63;;
80217;SDS011;69533;37.974;23.708;2023-04-24T08:31:48;6.70;;;3.20;;
80217;SDS011;69533;37.974;23.708;2023-04-24T08:34:16;7.50;;;3.13;;
80217;SDS011;69533;37.974;23.708;2023-04-24T08:36:41;7.30;;;3.13;;
80217;SDS011;69533;37.974;23.708;2023-04-24T08:39:07;3.65;;;2.75;;
80217;SDS011;69533;37.974;23.708;2023-04-24T08:41:34;3.92;;;3.25;;
80217;SDS011;69533;37.974;23.708;2023-04-24T08:44:01;4.32;;;3.72;;
80217;SDS011;69533;37.974;23.708;2023-04-24T08:46:27;5.22;;;3.42;;
80217;SDS011;69533;37.974;23.708;2023-04-24T08:48:55;8.75;;;3.22;;
80217;SDS011;69533;37.974;23.708;2023-04-24T08:51:21;4.35;;;2.78;;
80217;SDS011;69533;37.974;23.708;2023-04-24T08:53:50;4.97;;;3.53;;
80217;SDS011;69533;37.974;23.708;2023-04-24T08:56:18;7.45;;;3.33;;
80217;SDS011;69533;37.974;23.708;2023-04-24T08:58:45;5.88;;;3.53;;
80217;SDS011;69533;37.974;23.708;2023-04-24T09:01:11;6.57;;;3.13;;
80217;SDS011;69533;37.974;23.708;2023-04-24T09:03:38;5.40;;;2.83;;
80217;SDS011;69533;37.974;23.708;2023-04-24T09:06:04;4.45;;;3.33;;
80217;SDS011;69533;37.974;23.708;2023-04-24T09:08:33;4.40;;;3.35;;
80217;SDS011;69533;37.974;23.708;2023-04-24T09:10:59;3.67;;;3.20;;
80217;SDS011;69533;37.974;23.708;2023-04-24T09:13:27;4.13;;;3.10;;
80217;SDS011;69533;37.974;23.708;2023-04-24T09:15:53;5.03;;;3.00;;
80217;SDS011;69533;37.974;23.708;2023-04-24T09:18:19;5.82;;;3.10;;
80217;SDS011;69533;37.974;23.708;2023-04-24T09:21:05;4.25;;;2.78;;
80217;SDS011;69533;37.974;23.708;2023-04-24T09:23:33;3.50;;;3.03;;
80217;SDS011;69533;37.974;23.708;2023-04-24T09:25:59;3.22;;;2.90;;
80217;SDS011;69533;37.974;23.708;2023-04-24T09:28:29;4.55;;;2.92;;
80217;SDS011;69533;37.974;23.708;2023-04-24T09:31:08;7.43;;;2.88;;
80217;SDS011;69533;37.974;23.708;2023-04-24T09:33:56;4.57;;;2.80;;
80217;SDS011;69533;37.974;23.708;2023-04-24T09:36:42;4.70;;;2.80;;
80217;SDS011;69533;37.974;23.708;2023-04-24T09:39:09;4.78;;;3.35;;
80217;SDS011;69533;37.974;23.708;2023-04-24T09:41:43;5.00;;;3.10;;
80217;SDS011;69533;37.974;23.708;2023-04-24T09:44:20;3.97;;;2.70;;
80217;SDS011;69533;37.974;23.708;2023-04-24T09:46:57;4.00;;;3.10;;
80217;SDS011;69533;37.974;23.708;2023-04-24T09:51:50;4.00;;;2.83;;
80217;SDS011;69533;37.974;23.708;2023-04-24T09:54:20;4.40;;;3.58;;
80217;SDS011;69533;37.974;23.708;2023-04-24T09:56:50;3.15;;;2.78;;
80217;SDS011;69533;37.974;23.708;2023-04-24T09:59:17;5.80;;;3.17;;
80217;SDS011;69533;37.974;23.708;2023-04-24T10:01:46;3.45;;;3.13;;
80217;SDS011;69533;37.974;23.708;2023-04-24T10:06:52;5.15;;;2.88;;
80217;SDS011;69533;37.974;23.708;2023-04-24T10:09:21;4.25;;;2.53;;
80217;SDS011;69533;37.974;23.708;2023-04-24T10:11:51;2.83;;;2.35;;
80217;SDS011;69533;37.974;23.708;2023-04-24T10:14:19;4.97;;;2.60;;
80217;SDS011;69533;37.974;23.708;2023-04-24T10:16:47;3.40;;;3.10;;
80217;SDS011;69533;37.974;23.708;2023-04-24T10:19:14;3.92;;;3.35;;
80217;SDS011;69533;37.974;23.708;2023-04-24T10:21:41;3.30;;;3.00;;
80217;SDS011;69533;37.974;23.708;2023-04-24T10:24:20;5.55;;;2.92;;
80217;SDS011;69533;37.974;23.708;2023-04-24T10:26:46;3.67;;;2.88;;
80217;SDS011;69533;37.974;23.708;2023-04-24T10:29:34;3.13;;;2.42;;
80217;SDS011;69533;37.974;23.708;2023-04-24T10:32:04;6.07;;;2.97;;
80217;SDS011;69533;37.974;23.708;2023-04-24T10:34:32;4.95;;;2.58;;
80217;SDS011;69533;37.974;23.708;2023-04-24T10:36:58;4.78;;;2.97;;
80217;SDS011;69533;37.974;23.708;2023-04-24T10:39:24;2.88;;;2.58;;
80217;SDS011;69533;37.974;23.708;2023-04-24T10:41:50;3.95;;;3.08;;
80217;SDS011;69533;37.974;23.708;2023-04-24T10:44:16;4.90;;;2.67;;
80217;SDS011;69533;37.974;23.708;2023-04-24T10:46:44;4.15;;;2.75;;
80217;SDS011;69533;37.974;23.708;2023-04-24T10:49:11;4.15;;;3.10;;
80217;SDS011;69533;37.974;23.708;2023-04-24T10:51:46;3.42;;;2.95;;
80217;SDS011;69533;37.974;23.708;2023-04-24T10:59:48;4.30;;;3.33;;
80217;SDS011;69533;37.974;23.708;2023-04-24T11:02:19;3.80;;;2.70;;
80217;SDS011;69533;37.974;23.708;2023-04-24T11:05:05;3.42;;;2.90;;
80217;SDS011;69533;37.974;23.708;2023-04-24T11:10:45;6.60;;;3.38;;
80217;SDS011;69533;37.974;23.708;2023-04-24T11:13:20;4.07;;;2.83;;
80217;SDS011;69533;37.974;23.708;2023-04-24T11:18:43;4.32;;;3.28;;
80217;SDS011;69533;37.974;23.708;2023-04-24T11:21:18;3.67;;;3.33;;
80217;SDS011;69533;37.974;23.708;2023-04-24T11:23:45;3.50;;;3.13;;
80217;SDS011;69533;37.974;23.708;2023-04-24T11:26:12;5.18;;;3.33;;
80217;SDS011;69533;37.974;23.708;2023-04-24T11:28:49;3.65;;;3.35;;
80217;SDS011;69533;37.974;23.708;2023-04-24T11:34:07;5.85;;;3.60;;
80217;SDS011;69533;37.974;23.708;2023-04-24T11:36:39;4.63;;;3.50;;
80217;SDS011;69533;37.974;23.708;2023-04-24T11:39:13;5.63;;;3.13;;
80217;SDS011;69533;37.974;23.708;2023-04-24T11:41:41;4.40;;;3.20;;
80217;SDS011;69533;37.974;23.708;2023-04-24T11:44:08;3.40;;;3.08;;
80217;SDS011;69533;37.974;23.708;2023-04-24T11:46:36;3.53;;;2.85;;
80217;SDS011;69533;37.974;23.708;2023-04-24T11:49:04;8.13;;;2.95;;
80217;SDS011;69533;37.974;23.708;2023-04-24T11:51:31;8.05;;;3.08;;
80217;SDS011;69533;37.974;23.708;2023-04-24T11:53:58;4.07;;;3.67;;
80217;SDS011;69533;37.974;23.708;2023-04-24T11:56:24;3.42;;;3.05;;
80217;SDS011;69533;37.974;23.708;2023-04-24T11:58:53;5.00;;;3.88;;
80217;SDS011;69533;37.974;23.708;2023-04-24T12:01:20;4.43;;;3.08;;
80217;SDS011;69533;37.974;23.708;2023-04-24T12:03:49;7.95;;;4.18;;
80217;SDS011;69533;37.974;23.708;2023-04-24T12:06:16;3.42;;;3.05;;
80217;SDS011;69533;37.974;23.708;2023-04-24T12:08:45;4.90;;;3.40;;
80217;SDS011;69533;37.974;23.708;2023-04-24T12:11:14;5.22;;;3.38;;
80217;SDS011;69533;37.974;23.708;2023-04-24T12:13:41;4.47;;;3.00;;
80217;SDS011;69533;37.974;23.708;2023-04-24T12:16:06;3.53;;;3.22;;
80217;SDS011;69533;37.974;23.708;2023-04-24T12:18:32;3.38;;;3.00;;
80217;SDS011;69533;37.974;23.708;2023-04-24T12:23:47;3.67;;;2.70;;
80217;SDS011;69533;37.974;23.708;2023-04-24T12:26:17;3.47;;;2.50;;
80217;SDS011;69533;37.974;23.708;2023-04-24T12:28:45;4.13;;;2.70;;
80217;SDS011;69533;37.974;23.708;2023-04-24T12:31:13;4.45;;;2.97;;
80217;SDS011;69533;37.974;23.708;2023-04-24T12:33:39;3.30;;;2.70;;
80217;SDS011;69533;37.974;23.708;2023-04-24T12:36:05;3.83;;;2.95;;
80217;SDS011;69533;37.974;23.708;2023-04-24T12:38:31;2.38;;;2.17;;
80217;SDS011;69533;37.974;23.708;2023-04-24T12:41:14;3.22;;;2.65;;
80217;SDS011;69533;37.974;23.708;2023-04-24T12:43:50;6.13;;;2.83;;
80217;SDS011;69533;37.974;23.708;2023-04-24T12:46:17;3.75;;;2.63;;
80217;SDS011;69533;37.974;23.708;2023-04-24T12:48:43;2.70;;;2.50;;
80217;SDS011;69533;37.974;23.708;2023-04-24T12:51:08;5.43;;;2.80;;
80217;SDS011;69533;37.974;23.708;2023-04-24T12:53:34;3.85;;;2.70;;
80217;SDS011;69533;37.974;23.708;2023-04-24T12:56:00;3.70;;;2.70;;
80217;SDS011;69533;37.974;23.708;2023-04-24T12:58:25;3.65;;;2.60;;
80217;SDS011;69533;37.974;23.708;2023-04-24T13:00:51;5.45;;;3.22;;
80217;SDS011;69533;37.974;23.708;2023-04-24T13:03:17;5.35;;;2.83;;
80217;SDS011;69533;37.974;23.708;2023-04-24T13:05:43;5.68;;;3.03;;
80217;SDS011;69533;37.974;23.708;2023-04-24T13:08:10;3.67;;;2.58;;
80217;SDS011;69533;37.974;23.708;2023-04-24T13:10:36;4.55;;;2.78;;
80217;SDS011;69533;37.974;23.708;2023-04-24T13:13:02;4.35;;;3.22;;
80217;SDS011;69533;37.974;23.708;2023-04-24T13:15:28;3.50;;;2.83;;
80217;SDS011;69533;37.974;23.708;2023-04-24T13:17:54;4.50;;;2.50;;
80217;SDS011;69533;37.974;23.708;2023-04-24T13:20:20;3.03;;;2.45;;
80217;SDS011;69533;37.974;23.708;2023-04-24T13:22:46;2.95;;;2.33;;
80217;SDS011;69533;37.974;23.708;2023-04-24T13:25:11;3.08;;;2.70;;
80217;SDS011;69533;37.974;23.708;2023-04-24T13:27:40;3.08;;;2.63;;
80217;SDS011;69533;37.974;23.708;2023-04-24T13:30:07;3.35;;;2.75;;
80217;SDS011;69533;37.974;23.708;2023-04-24T13:32:33;4.57;;;2.50;;
80217;SDS011;69533;37.974;23.708;2023-04-24T13:35:00;4.43;;;2.70;;
80217;SDS011;69533;37.974;23.708;2023-04-24T13:37:26;3.90;;;2.70;;
80217;SDS011;69533;37.974;23.708;2023-04-24T13:39:52;4.85;;;2.40;;
80217;SDS011;69533;37.974;23.708;2023-04-24T13:42:18;3.22;;;2.67;;
80217;SDS011;69533;37.974;23.708;2023-04-24T13:44:45;4.13;;;2.40;;
80217;SDS011;69533;37.974;23.708;2023-04-24T13:47:11;4.05;;;2.30;;
80217;SDS011;69533;37.974;23.708;2023-04-24T13:49:37;3.92;;;2.53;;
80217;SDS011;69533;37.974;23.708;2023-04-24T13:52:02;2.72;;;2.50;;
80217;SDS011;69533;37.974;23.708;2023-04-24T13:54:28;2.58;;;2.28;;
80217;SDS011;69533;37.974;23.708;2023-04-24T13:56:55;5.22;;;2.83;;
80217;SDS011;69533;37.974;23.708;2023-04-24T13:59:22;2.47;;;2.22;;
80217;SDS011;69533;37.974;23.708;2023-04-24T14:01:48;3.10;;;2.80;;
80217;SDS011;69533;37.974;23.708;2023-04-24T14:04:15;3.75;;;2.40;;
80217;SDS011;69533;37.974;23.708;2023-04-24T14:06:41;3.05;;;2.22;;
80217;SDS011;69533;37.974;23.708;2023-04-24T14:09:07;3.53;;;1.95;;
80217;SDS011;69533;37.974;23.708;2023-04-24T14:11:33;2.78;;;2.22;;
80217;SDS011;69533;37.974;23.708;2023-04-24T14:13:59;4.22;;;2.10;;
80217;SDS011;69533;37.974;23.708;2023-04-24T14:16:25;2.10;;;1.90;;
80217;SDS011;69533;37.974;23.708;2023-04-24T14:18:51;2.45;;;2.25;;
80217;SDS011;69533;37.974;23.708;2023-04-24T14:21:16;3.53;;;2.60;;
80217;SDS011;69533;37.974;23.708;2023-04-24T14:23:42;3.55;;;2.40;;
80217;SDS011;69533;37.974;23.708;2023-04-24T14:26:09;2.53;;;2.20;;
80217;SDS011;69533;37.974;23.708;2023-04-24T14:28:34;2.80;;;2.40;;
80217;SDS011;69533;37.974;23.708;2023-04-24T14:31:00;2.65;;;2.28;;
80217;SDS011;69533;37.974;23.708;2023-04-24T14:33:26;4.22;;;2.85;;
80217;SDS011;69533;37.974;23.708;2023-04-24T14:35:52;3.70;;;2.17;;
80217;SDS011;69533;37.974;23.708;2023-04-24T14:38:18;3.08;;;2.22;;
80217;SDS011;69533;37.974;23.708;2023-04-24T14:40:43;2.40;;;2.20;;
80217;SDS011;69533;37.974;23.708;2023-04-24T14:43:09;2.88;;;2.33;;
80217;SDS011;69533;37.974;23.708;2023-04-24T14:45:35;2.10;;;1.98;;